createdAt,value
2022-10-14T00:00:18.154Z,20.30
2022-10-14T00:03:25.810Z,16.90
2022-10-14T00:06:23.015Z,16.60
2022-10-14T00:09:10.757Z,19.10
2022-10-14T00:11:58.232Z,17.20
2022-10-14T00:14:46.170Z,15.50
2022-10-14T00:17:33.798Z,19.20
2022-10-14T00:20:21.651Z,16.20
2022-10-14T00:23:09.875Z,21.60
2022-10-14T00:25:57.818Z,17.90
2022-10-14T00:28:48.137Z,20.60
2022-10-14T00:31:36.342Z,19.40
2022-10-14T00:34:23.750Z,21.70
2022-10-14T00:37:11.697Z,20.50
2022-10-14T00:39:59.476Z,18.90
2022-10-14T00:42:49.323Z,16.70
2022-10-14T00:45:36.820Z,22.90
2022-10-14T00:48:26.847Z,21.90
2022-10-14T00:51:16.197Z,21.60
2022-10-14T00:54:05.083Z,21.20
2022-10-14T00:56:53.159Z,20.50
2022-10-14T00:59:41.924Z,23.50
2022-10-14T01:02:30.118Z,20.60
2022-10-14T01:05:20.665Z,21.10
2022-10-14T01:08:35.546Z,21.50
2022-10-14T01:12:16.136Z,20.80
2022-10-14T01:15:17.677Z,23.70
2022-10-14T01:18:38.608Z,19.50
2022-10-14T01:21:52.374Z,22.00
2022-10-14T01:25:07.351Z,19.80
2022-10-14T01:28:27.637Z,18.40
2022-10-14T01:31:24.164Z,21.20
2022-10-14T01:34:14.721Z,20.50
2022-10-14T01:37:13.889Z,26.00
2022-10-14T01:40:11.302Z,23.20
2022-10-14T01:43:02.366Z,19.70
2022-10-14T01:45:52.296Z,24.00
2022-10-14T01:48:46.799Z,19.30
2022-10-14T01:51:50.508Z,24.60
2022-10-14T01:54:41.769Z,26.80
2022-10-14T01:57:35.294Z,27.20
2022-10-14T02:00:23.181Z,20.80
2022-10-14T02:03:13.522Z,24.10
2022-10-14T02:06:07.153Z,23.10
2022-10-14T02:09:16.195Z,17.20
2022-10-14T02:12:13.114Z,23.90
2022-10-14T02:15:49.814Z,25.50
2022-10-14T02:18:56.668Z,21.80
2022-10-14T02:21:51.883Z,22.80
2022-10-14T02:24:53.391Z,25.70
2022-10-14T02:27:44.340Z,25.40
2022-10-14T02:30:41.724Z,22.60
2022-10-14T02:33:37.589Z,25.00
2022-10-14T02:36:29.845Z,21.60
2022-10-14T02:39:28.039Z,20.40
2022-10-14T02:42:17.803Z,20.20
2022-10-14T02:45:07.848Z,19.50
2022-10-14T02:47:56.269Z,23.10
2022-10-14T02:50:44.184Z,25.30
2022-10-14T02:53:31.894Z,23.40
2022-10-14T02:56:19.944Z,20.00
2022-10-14T02:59:07.753Z,21.30
2022-10-14T03:01:55.645Z,25.40
2022-10-14T03:04:43.822Z,24.10
2022-10-14T03:07:32.235Z,24.90
2022-10-14T03:10:22.440Z,23.60
2022-10-14T03:13:10.314Z,24.70
2022-10-14T03:16:02.229Z,24.60
2022-10-14T03:18:50.030Z,23.90
2022-10-14T03:21:42.655Z,22.90
2022-10-14T03:24:34.819Z,27.40
2022-10-14T03:27:37.799Z,26.50
2022-10-14T03:30:29.016Z,21.80
2022-10-14T03:33:23.607Z,23.10
2022-10-14T03:36:18.778Z,26.30
2022-10-14T03:39:12.145Z,25.00
2022-10-14T03:42:05.939Z,27.00
2022-10-14T03:45:00.256Z,25.30
2022-10-14T03:47:49.846Z,22.90
2022-10-14T03:50:37.825Z,23.30
2022-10-14T03:53:27.302Z,23.60
2022-10-14T03:56:15.398Z,26.90
2022-10-14T03:59:06.406Z,23.60
2022-10-14T04:01:54.283Z,27.30
2022-10-14T04:04:45.040Z,25.80
2022-10-14T04:07:33.350Z,25.90
2022-10-14T04:10:21.931Z,25.60
2022-10-14T04:13:11.989Z,31.70
2022-10-14T04:16:24.327Z,25.10
2022-10-14T04:19:21.421Z,25.70
2022-10-14T04:22:10.330Z,23.20
2022-10-14T04:24:57.959Z,23.20
2022-10-14T04:27:46.354Z,25.50
2022-10-14T04:30:34.224Z,24.80
2022-10-14T04:33:22.076Z,24.40
2022-10-14T04:36:12.120Z,25.00
2022-10-14T04:39:00.668Z,30.00
2022-10-14T04:41:48.396Z,23.00
2022-10-14T04:44:38.660Z,22.70
2022-10-14T04:47:26.443Z,23.40
2022-10-14T04:50:18.922Z,27.20
2022-10-14T04:53:26.709Z,26.40
2022-10-14T04:56:22.012Z,25.80
2022-10-14T04:59:15.550Z,24.20
2022-10-14T05:02:15.142Z,23.70
2022-10-14T05:05:09.154Z,27.40
2022-10-14T05:07:58.586Z,25.40
2022-10-14T05:10:53.038Z,29.10
2022-10-14T05:13:53.767Z,25.90
2022-10-14T05:16:42.684Z,26.00
2022-10-14T05:19:31.102Z,23.40
2022-10-14T05:22:19.181Z,26.20
2022-10-14T05:25:07.553Z,28.00
2022-10-14T05:27:55.273Z,22.80
2022-10-14T05:30:43.089Z,28.80
2022-10-14T05:33:32.269Z,26.60
2022-10-14T05:36:20.364Z,28.10
2022-10-14T05:39:09.105Z,24.70
2022-10-14T05:41:57.414Z,27.90
2022-10-14T05:44:46.165Z,30.00
2022-10-14T05:47:34.054Z,35.20
2022-10-14T05:50:28.768Z,28.40
2022-10-14T05:53:18.627Z,30.70
2022-10-14T05:56:10.808Z,33.80
2022-10-14T05:58:59.761Z,31.70
2022-10-14T06:01:50.339Z,28.10
2022-10-14T06:04:41.201Z,30.30
2022-10-14T06:07:29.676Z,32.30
2022-10-14T06:10:17.705Z,24.90
2022-10-14T06:13:05.795Z,34.00
2022-10-14T06:15:54.676Z,40.60
2022-10-14T06:18:42.355Z,30.50
2022-10-14T06:21:30.768Z,29.50
2022-10-14T06:24:18.714Z,29.40
2022-10-14T06:27:06.214Z,30.80
2022-10-14T06:29:53.891Z,32.40
2022-10-14T06:32:41.909Z,31.90
2022-10-14T06:35:29.909Z,27.00
2022-10-14T06:38:17.686Z,30.70
2022-10-14T06:41:05.583Z,29.40
2022-10-14T06:43:55.970Z,29.30
2022-10-14T06:46:44.184Z,33.00
2022-10-14T06:49:32.404Z,33.20
2022-10-14T06:52:20.238Z,34.30
2022-10-14T06:55:08.242Z,37.80
2022-10-14T06:57:55.765Z,32.30
2022-10-14T07:00:47.968Z,31.10
2022-10-14T07:03:40.356Z,39.80
2022-10-14T07:06:28.342Z,46.80
2022-10-14T07:09:16.265Z,37.20
2022-10-14T07:12:04.291Z,42.50
2022-10-14T07:14:51.887Z,34.00
2022-10-14T07:17:39.982Z,31.90
2022-10-14T07:20:27.732Z,43.10
2022-10-14T07:23:15.527Z,38.00
2022-10-14T07:26:03.856Z,39.10
2022-10-14T07:28:51.893Z,32.40
2022-10-14T07:31:39.780Z,37.50
2022-10-14T07:34:28.120Z,30.60
2022-10-14T07:37:15.683Z,32.80
2022-10-14T07:40:04.279Z,33.60
2022-10-14T07:42:51.888Z,33.40
2022-10-14T07:45:44.311Z,35.70
2022-10-14T07:48:52.215Z,31.80
2022-10-14T07:51:42.467Z,33.40
2022-10-14T07:54:31.226Z,33.40
2022-10-14T07:57:19.518Z,32.60
2022-10-14T08:00:10.934Z,30.70
2022-10-14T08:03:01.466Z,28.50
2022-10-14T08:05:50.491Z,35.60
2022-10-14T08:08:39.308Z,28.00
2022-10-14T08:11:29.539Z,32.90
2022-10-14T08:14:17.325Z,27.00
2022-10-14T08:17:05.279Z,25.30
2022-10-14T08:19:53.264Z,25.70
2022-10-14T08:22:41.713Z,33.60
2022-10-14T08:25:29.404Z,28.70
2022-10-14T08:28:17.386Z,26.80
2022-10-14T08:31:05.359Z,25.90
2022-10-14T08:33:53.710Z,28.60
2022-10-14T08:36:41.881Z,26.70
2022-10-14T08:39:29.595Z,29.80
2022-10-14T08:42:52.823Z,26.00
2022-10-14T08:45:50.120Z,24.60
2022-10-14T08:48:38.803Z,27.60
2022-10-14T08:51:29.278Z,30.10
2022-10-14T08:54:38.477Z,29.00
2022-10-14T08:57:33.612Z,28.00
2022-10-14T09:00:22.337Z,28.20
2022-10-14T09:03:33.147Z,30.50
2022-10-14T09:06:36.720Z,34.40
2022-10-14T09:09:38.345Z,36.60
2022-10-14T09:12:32.237Z,36.40
2022-10-14T09:15:36.332Z,38.60
2022-10-14T09:18:29.796Z,33.80
2022-10-14T09:21:51.591Z,29.50
2022-10-14T09:24:45.106Z,30.90
2022-10-14T09:27:34.296Z,30.20
2022-10-14T09:30:22.027Z,27.20
2022-10-14T09:33:18.138Z,28.10
2022-10-14T09:36:17.297Z,29.50
2022-10-14T09:39:06.424Z,27.50
2022-10-14T09:41:55.396Z,26.90
2022-10-14T09:44:43.219Z,30.10
2022-10-14T09:47:31.650Z,26.40
2022-10-14T09:50:48.799Z,29.70
2022-10-14T09:53:47.223Z,26.50
2022-10-14T09:56:40.690Z,26.90
2022-10-14T09:59:30.086Z,28.40
2022-10-14T10:02:42.184Z,29.20
2022-10-14T10:05:36.262Z,31.30
2022-10-14T10:08:26.203Z,23.20
2022-10-14T10:11:15.406Z,24.50
2022-10-14T10:14:27.891Z,23.40
2022-10-14T10:17:19.433Z,26.50
2022-10-14T10:20:33.405Z,25.00
2022-10-14T10:23:25.561Z,26.60
2022-10-14T10:26:26.097Z,18.60
2022-10-14T10:29:35.538Z,21.60
2022-10-14T10:32:42.655Z,24.30
2022-10-14T10:36:08.702Z,21.40
2022-10-14T10:39:24.704Z,23.30
2022-10-14T10:42:34.558Z,28.00
2022-10-14T10:45:51.489Z,23.90
2022-10-14T10:48:47.723Z,25.50
2022-10-14T10:52:35.127Z,24.60
2022-10-14T10:55:43.780Z,24.00
2022-10-14T10:58:41.523Z,30.50
2022-10-14T11:01:42.442Z,25.00
2022-10-14T11:04:42.595Z,24.30
2022-10-14T11:08:53.578Z,21.40
2022-10-14T11:12:13.009Z,21.20
2022-10-14T11:15:32.239Z,24.50
2022-10-14T11:18:45.495Z,21.20
2022-10-14T11:22:13.001Z,25.80
2022-10-14T11:25:28.506Z,21.20
2022-10-14T11:28:36.302Z,19.60
2022-10-14T11:31:34.049Z,20.40
2022-10-14T11:34:38.075Z,17.20
2022-10-14T11:37:51.214Z,19.30
2022-10-14T11:40:41.754Z,15.00
2022-10-14T11:44:08.451Z,19.30
2022-10-14T11:47:03.265Z,21.90
2022-10-14T11:50:22.029Z,21.30
2022-10-14T11:53:32.240Z,19.10
2022-10-14T11:56:37.738Z,17.60
2022-10-14T11:59:56.547Z,26.00
2022-10-14T12:03:05.325Z,16.70
2022-10-14T12:06:14.993Z,18.40
2022-10-14T12:09:39.610Z,16.40
2022-10-14T12:12:30.505Z,22.60
2022-10-14T12:15:26.043Z,17.90
2022-10-14T12:18:14.266Z,16.60
2022-10-14T12:21:10.323Z,17.70
2022-10-14T12:24:02.925Z,18.30
2022-10-14T12:26:57.484Z,19.70
2022-10-14T12:29:50.551Z,15.10
2022-10-14T12:33:08.135Z,18.00
2022-10-14T12:36:01.250Z,17.30
2022-10-14T12:39:17.471Z,18.20
2022-10-14T12:42:12.984Z,16.90
2022-10-14T12:45:14.518Z,20.30
2022-10-14T12:48:07.575Z,18.90
2022-10-14T12:51:14.777Z,15.90
2022-10-14T12:54:15.961Z,18.40
2022-10-14T12:57:28.557Z,18.30
2022-10-14T13:00:22.264Z,18.40
2022-10-14T13:03:27.423Z,22.00
2022-10-14T13:06:30.805Z,17.10
2022-10-14T13:09:30.779Z,18.80
2022-10-14T13:12:21.725Z,24.00
2022-10-14T13:15:57.528Z,21.20
2022-10-14T13:18:45.585Z,20.80
2022-10-14T13:21:38.859Z,18.50
2022-10-14T13:24:39.285Z,19.00
2022-10-14T13:27:42.098Z,20.80
2022-10-14T13:30:47.671Z,24.20
2022-10-14T13:33:48.259Z,23.00
2022-10-14T13:36:51.152Z,22.90
2022-10-14T13:39:39.082Z,24.40
2022-10-14T13:42:34.891Z,24.10
2022-10-14T13:45:42.303Z,23.20
2022-10-14T13:48:41.412Z,19.90
2022-10-14T13:51:56.938Z,21.20
2022-10-14T13:54:45.626Z,20.60
2022-10-14T13:58:11.494Z,20.90
2022-10-14T14:00:55.422Z,17.00
2022-10-14T14:03:52.384Z,20.20
2022-10-14T14:07:03.182Z,19.10
2022-10-14T14:10:10.205Z,18.60
2022-10-14T14:13:02.347Z,15.80
2022-10-14T14:15:55.405Z,17.10
2022-10-14T14:19:04.317Z,18.80
2022-10-14T14:22:30.995Z,19.30
2022-10-14T14:25:46.449Z,20.80
2022-10-14T14:28:37.373Z,22.00
2022-10-14T14:31:48.043Z,18.50
2022-10-14T14:34:41.358Z,22.60
2022-10-14T14:40:42.804Z,21.10
2022-10-14T14:43:36.497Z,22.80
2022-10-14T14:46:40.909Z,23.60
2022-10-14T14:49:38.745Z,21.90
2022-10-14T14:52:28.851Z,23.20
2022-10-14T14:55:45.620Z,25.70
2022-10-14T14:58:44.358Z,22.30
2022-10-14T15:01:33.792Z,21.10
2022-10-14T15:04:28.389Z,23.70
2022-10-14T15:07:25.065Z,22.90
2022-10-14T15:10:30.551Z,22.60
2022-10-14T15:13:41.607Z,24.80
2022-10-14T15:16:42.995Z,26.80
2022-10-14T15:19:38.349Z,23.20
2022-10-14T15:22:37.802Z,25.40
2022-10-14T15:25:31.266Z,21.40
2022-10-14T15:28:33.167Z,26.30
2022-10-14T15:31:21.892Z,25.40
2022-10-14T15:34:22.546Z,24.10
2022-10-14T15:37:13.919Z,29.30
2022-10-14T15:40:28.550Z,26.40
2022-10-14T15:43:25.467Z,30.10
2022-10-14T15:46:35.167Z,22.70
2022-10-14T15:49:32.078Z,25.70
2022-10-14T15:52:22.926Z,26.60
2022-10-14T15:55:21.839Z,26.80
2022-10-14T15:58:10.099Z,24.40
2022-10-14T16:00:57.908Z,28.50
2022-10-14T16:03:50.210Z,28.70
2022-10-14T16:06:38.411Z,31.70
2022-10-14T16:09:29.207Z,34.70
2022-10-14T16:12:17.031Z,36.00
2022-10-14T16:15:30.597Z,31.60
2022-10-14T16:18:18.580Z,31.00
2022-10-14T16:21:06.566Z,29.10
2022-10-14T16:24:01.244Z,35.70
2022-10-14T16:26:50.970Z,32.90
2022-10-14T16:29:39.160Z,36.30
2022-10-14T16:32:27.189Z,42.00
2022-10-14T16:35:17.275Z,41.50
2022-10-14T16:38:06.294Z,41.30
2022-10-14T16:40:59.589Z,39.90
2022-10-14T16:43:48.920Z,39.40
2022-10-14T16:46:56.721Z,41.10
2022-10-14T16:49:47.721Z,38.60
2022-10-14T16:52:58.903Z,42.60
2022-10-14T16:55:48.596Z,40.00
2022-10-14T16:58:48.738Z,39.50
2022-10-14T17:01:47.859Z,38.20
2022-10-14T17:04:42.238Z,40.90
2022-10-14T17:07:30.330Z,45.40
2022-10-14T17:10:18.647Z,43.70
2022-10-14T17:13:07.041Z,50.30
2022-10-14T17:16:02.801Z,48.10
2022-10-14T17:18:50.977Z,47.70
2022-10-14T17:21:39.772Z,47.50
2022-10-14T17:24:28.265Z,51.40
2022-10-14T17:27:24.313Z,48.40
2022-10-14T17:30:13.281Z,49.10
2022-10-14T17:33:00.664Z,46.10
2022-10-14T17:35:55.061Z,41.60
2022-10-14T17:38:42.643Z,46.00
2022-10-14T17:41:34.359Z,50.50
2022-10-14T17:44:21.925Z,45.60
2022-10-14T17:47:09.521Z,47.60
2022-10-14T17:49:57.374Z,50.00
2022-10-14T17:52:45.105Z,48.60
2022-10-14T17:55:36.760Z,43.30
2022-10-14T17:58:24.654Z,50.20
2022-10-14T18:01:17.463Z,46.70
2022-10-14T18:04:06.941Z,53.30
2022-10-14T18:06:54.636Z,50.30
2022-10-14T18:09:43.831Z,50.60
2022-10-14T18:12:32.679Z,52.00
2022-10-14T18:15:20.866Z,46.50
2022-10-14T18:18:08.891Z,45.30
2022-10-14T18:20:57.871Z,48.40
2022-10-14T18:23:46.528Z,49.80
2022-10-14T18:26:34.945Z,46.40
2022-10-14T18:29:26.419Z,44.50
2022-10-14T18:32:14.271Z,40.70
2022-10-14T18:35:03.608Z,50.00
2022-10-14T18:37:51.315Z,38.80
2022-10-14T18:40:39.039Z,50.30
2022-10-14T18:43:27.198Z,53.30
2022-10-14T18:46:22.036Z,49.80
2022-10-14T18:49:11.780Z,51.70
2022-10-14T18:51:59.873Z,47.00
2022-10-14T18:54:47.797Z,48.30
2022-10-14T18:57:35.569Z,51.40
2022-10-14T19:00:23.473Z,53.20
2022-10-14T19:03:11.338Z,57.10
2022-10-14T19:06:00.535Z,56.50
2022-10-14T19:08:50.972Z,49.70
2022-10-14T19:11:38.924Z,55.20
2022-10-14T19:14:28.827Z,49.10
2022-10-14T19:17:16.556Z,57.30
2022-10-14T19:20:07.158Z,49.20
2022-10-14T19:22:56.890Z,54.10
2022-10-14T19:25:45.028Z,54.40
2022-10-14T19:28:32.913Z,51.30
2022-10-14T19:31:32.376Z,52.10
2022-10-14T19:34:20.578Z,51.90
2022-10-14T19:37:08.282Z,52.90
2022-10-14T19:39:56.095Z,54.50
2022-10-14T19:42:43.766Z,53.70
2022-10-14T19:45:31.377Z,51.40
2022-10-14T19:48:19.705Z,52.40
2022-10-14T19:51:11.901Z,48.70
2022-10-14T19:54:00.601Z,48.60
2022-10-14T19:56:52.356Z,52.00
2022-10-14T19:59:40.613Z,52.90
2022-10-14T20:02:28.681Z,49.70
2022-10-14T20:05:19.157Z,53.90
2022-10-14T20:08:07.691Z,52.50
2022-10-14T20:10:55.982Z,58.40
2022-10-14T20:13:45.664Z,56.50
2022-10-14T20:16:34.120Z,57.20
2022-10-14T20:19:24.057Z,54.60
2022-10-14T20:22:12.043Z,57.00
2022-10-14T20:25:02.860Z,54.90
2022-10-14T20:27:50.795Z,54.40
2022-10-14T20:30:41.893Z,49.30
2022-10-14T20:33:39.826Z,55.60
2022-10-14T20:36:27.509Z,56.50
2022-10-14T20:39:29.132Z,55.50
2022-10-14T20:42:18.941Z,57.50
2022-10-14T20:45:12.986Z,57.70
2022-10-14T20:48:00.981Z,58.30
2022-10-14T20:50:48.766Z,56.70
2022-10-14T20:53:36.683Z,55.70
2022-10-14T20:56:24.797Z,52.30
2022-10-14T20:59:13.806Z,59.50
2022-10-14T21:02:21.480Z,60.00
2022-10-14T21:05:14.585Z,60.40
2022-10-14T21:08:07.542Z,56.70
2022-10-14T21:11:03.773Z,57.30
2022-10-14T21:13:55.411Z,57.70
2022-10-14T21:16:43.019Z,57.20
2022-10-14T21:19:30.794Z,54.00
2022-10-14T21:22:19.004Z,62.60
2022-10-14T21:25:06.809Z,56.10
2022-10-14T21:27:54.875Z,62.30
2022-10-14T21:30:42.600Z,63.40
2022-10-14T21:33:30.887Z,53.40
2022-10-14T21:36:18.498Z,58.40
2022-10-14T21:39:18.018Z,57.00
2022-10-14T21:42:05.765Z,59.30
2022-10-14T21:44:53.814Z,58.30
2022-10-14T21:47:41.589Z,52.80
2022-10-14T21:50:29.426Z,58.60
2022-10-14T21:53:17.162Z,52.80
2022-10-14T21:56:05.115Z,54.10
2022-10-14T21:58:54.143Z,54.90
2022-10-14T22:01:42.212Z,56.10
2022-10-14T22:04:33.316Z,51.50
2022-10-14T22:07:25.659Z,59.00
2022-10-14T22:10:33.569Z,49.30
2022-10-14T22:13:21.335Z,53.50
2022-10-14T22:16:09.284Z,54.50
2022-10-14T22:19:01.444Z,51.30
2022-10-14T22:21:48.941Z,56.50
2022-10-14T22:24:36.519Z,55.80
2022-10-14T22:27:24.618Z,58.50
2022-10-14T22:30:13.798Z,56.30
2022-10-14T22:33:01.702Z,54.00
2022-10-14T22:35:51.154Z,58.30
2022-10-14T22:38:40.928Z,59.40
2022-10-14T22:41:34.917Z,53.70
2022-10-14T22:44:22.781Z,66.60
2022-10-14T22:47:10.370Z,59.10
2022-10-14T22:49:58.547Z,58.90
2022-10-14T22:52:46.309Z,51.70
2022-10-14T22:55:33.961Z,56.10
2022-10-14T22:58:21.842Z,56.70
2022-10-14T23:01:13.956Z,58.80
2022-10-14T23:04:04.548Z,56.10
2022-10-14T23:07:04.323Z,57.20
2022-10-14T23:09:58.634Z,52.50
2022-10-14T23:12:50.252Z,56.70
2022-10-14T23:15:39.494Z,55.90
2022-10-14T23:18:30.550Z,56.10
2022-10-14T23:21:28.191Z,62.50
2022-10-14T23:24:15.925Z,57.20
2022-10-14T23:27:03.936Z,59.10
2022-10-14T23:29:51.740Z,56.40
2022-10-14T23:32:40.287Z,52.80
2022-10-14T23:35:27.815Z,54.50
2022-10-14T23:38:15.673Z,52.40
2022-10-14T23:41:05.811Z,57.10
2022-10-14T23:43:54.135Z,55.60
2022-10-14T23:46:42.059Z,48.20
2022-10-14T23:49:29.794Z,51.00
2022-10-14T23:52:17.446Z,50.90
2022-10-14T23:55:05.742Z,48.70
2022-10-14T23:57:53.386Z,48.80
